Time;durP1;ratioP1;P1;durP2;ratioP2;P2;SDS_P1;SDS_P2;PMS_P1;PMS_P2;Temp;Humidity;BMP_temperature;BMP_pressure;BME280_temperature;BME280_humidity;BME280_pressure;Samples;Min_cycle;Max_cycle;Signal;HPM_P1;HPM_P2
2022/11/17 00:02:24;;;;;;;17.73;3.07;;;9.70;81.10;9.60;94880.00;;;;5017829;28;20233;-83
2022/11/17 00:04:51;;;;;;;11.50;2.33;;;9.70;81.00;9.60;94871.00;;;;5010906;28;20225;-83
2022/11/17 00:07:18;;;;;;;5.93;2.17;;;9.70;80.90;9.60;94877.00;;;;5020747;28;20229;-82
2022/11/17 00:09:45;;;;;;;7.87;2.40;;;9.70;80.80;9.60;94874.00;;;;5009513;28;20205;-80
2022/11/17 00:14:57;;;;;;;17.00;3.50;;;9.70;80.90;9.60;94856.00;;;;5002211;28;20627;-82
2022/11/17 00:17:26;;;;;;;13.20;2.70;;;9.70;80.90;9.60;94852.00;;;;5006845;28;20736;-81
2022/11/17 00:22:37;;;;;;;13.30;2.50;;;9.60;80.70;9.50;94841.00;;;;5012102;28;20273;-82
2022/11/17 00:25:05;;;;;;;2.57;1.80;;;9.60;80.50;9.50;94851.00;;;;5015259;28;20287;-80
2022/11/17 00:27:33;;;;;;;16.03;2.80;;;9.60;80.50;9.50;94838.00;;;;5011590;28;20198;-81
2022/11/17 00:30:00;;;;;;;10.57;2.60;;;9.60;80.60;9.50;94837.00;;;;5014645;28;20272;-82
2022/11/17 00:35:13;;;;;;;11.27;2.63;;;9.60;80.40;9.40;94834.00;;;;5013577;28;20295;-81
2022/11/17 00:38:14;;;;;;;11.60;2.57;;;9.50;80.30;9.40;94848.00;;;;5008658;28;20647;-82
2022/11/17 00:40:30;;;;;;;9.37;2.17;;;9.60;80.40;9.40;94851.00;;;;5009194;28;20204;-82
2022/11/17 00:42:57;;;;;;;16.17;2.60;;;9.50;80.40;9.40;94844.00;;;;5015875;28;20230;-82
2022/11/17 00:45:24;;;;;;;11.30;2.53;;;9.50;80.50;9.40;94850.00;;;;5014950;28;20264;-82
2022/11/17 00:47:53;;;;;;;13.77;2.30;;;9.50;80.50;9.40;94852.00;;;;5008434;28;20202;-82
2022/11/17 00:50:20;;;;;;;16.00;2.80;;;9.50;80.50;9.40;94855.00;;;;5012407;28;20619;-82
2022/11/17 00:52:47;;;;;;;7.97;2.37;;;9.50;80.60;9.40;94846.00;;;;5014665;28;20222;-80
2022/11/17 00:55:15;;;;;;;3.27;1.90;;;9.50;80.60;9.40;94849.00;;;;5016205;28;20260;-82
2022/11/17 00:57:42;;;;;;;12.80;2.60;;;9.50;80.80;9.40;94859.00;;;;5015956;28;20202;-82
2022/11/17 01:00:10;;;;;;;8.00;2.03;;;9.50;80.90;9.40;94860.00;;;;5016707;28;20229;-82
2022/11/17 01:02:37;;;;;;;3.03;1.87;;;9.50;80.90;9.40;94848.00;;;;5010974;28;20277;-82
2022/11/17 01:05:07;;;;;;;9.67;2.20;;;9.50;81.10;9.40;94852.00;;;;5015504;28;20314;-81
2022/11/17 01:07:34;;;;;;;12.33;2.60;;;9.50;81.20;9.40;94849.00;;;;5021757;28;20272;-81
2022/11/17 01:10:01;;;;;;;6.60;2.10;;;9.50;81.20;9.40;94848.00;;;;5034333;28;20292;-82
2022/11/17 01:12:28;;;;;;;5.40;2.00;;;9.50;81.10;9.50;94847.00;;;;5015081;28;20296;-81
2022/11/17 01:14:55;;;;;;;6.17;2.50;;;9.50;81.10;9.50;94847.00;;;;5015778;28;20663;-82
2022/11/17 01:17:23;;;;;;;2.07;1.87;;;9.50;81.10;9.50;94849.00;;;;5014428;28;20198;-82
2022/11/17 01:19:50;;;;;;;2.97;2.00;;;9.60;81.30;9.50;94841.00;;;;5023899;28;20222;-82
2022/11/17 01:22:18;;;;;;;5.73;2.20;;;9.60;81.40;9.50;94843.00;;;;5023200;28;20618;-82
2022/11/17 01:24:46;;;;;;;12.07;2.33;;;9.60;81.40;9.50;94829.00;;;;5014439;28;20253;-82
2022/11/17 01:27:13;;;;;;;6.40;2.27;;;9.60;81.30;9.50;94834.00;;;;5018829;28;20249;-81
2022/11/17 01:29:40;;;;;;;4.43;2.17;;;9.60;81.30;9.50;94828.00;;;;5020295;28;20230;-82
2022/11/17 01:32:07;;;;;;;3.13;2.00;;;9.60;81.30;9.60;94831.00;;;;5029926;28;20252;-82
2022/11/17 01:34:35;;;;;;;2.30;1.90;;;9.60;81.30;9.60;94829.00;;;;5023584;28;20245;-82
2022/11/17 01:37:20;;;;;;;4.53;2.00;;;9.60;81.40;9.60;94825.00;;;;5017740;28;20206;-82
2022/11/17 01:39:50;;;;;;;2.10;1.90;;;9.60;81.50;9.60;94818.00;;;;5023546;28;20209;-81
2022/11/17 01:42:20;;;;;;;3.67;2.37;;;9.70;81.60;9.60;94822.00;;;;5021201;28;20209;-82
2022/11/17 01:44:57;;;;;;;4.70;2.20;;;9.70;81.70;9.60;94812.00;;;;5021145;28;20213;-82
2022/11/17 01:47:34;;;;;;;12.37;2.60;;;9.70;81.70;9.70;94811.00;;;;5018908;28;20260;-83
2022/11/17 01:50:09;;;;;;;3.20;2.10;;;9.70;81.60;9.70;94819.00;;;;5016259;28;20217;-82
2022/11/17 01:52:39;;;;;;;4.93;2.40;;;9.70;81.50;9.70;94810.00;;;;5018918;28;20232;-82
2022/11/17 01:55:11;;;;;;;3.23;2.20;;;9.70;81.50;9.70;94803.00;;;;5023561;28;20244;-81
2022/11/17 01:57:45;;;;;;;8.67;2.53;;;9.80;81.70;9.70;94800.00;;;;5022642;28;20778;-82
2022/11/17 02:00:14;;;;;;;5.43;2.10;;;9.80;81.70;9.70;94804.00;;;;5014726;28;20285;-82
2022/11/17 02:02:44;;;;;;;4.87;2.33;;;9.80;81.60;9.70;94804.00;;;;5023825;28;20277;-82
2022/11/17 02:05:27;;;;;;;2.43;2.23;;;9.80;81.70;9.80;94804.00;;;;5019148;28;20336;-82
2022/11/17 02:07:59;;;;;;;2.43;2.23;;;9.80;81.80;9.80;94799.00;;;;5016999;28;20842;-82
2022/11/17 02:10:32;;;;;;;3.90;2.60;;;9.80;81.70;9.80;94796.00;;;;5014184;28;20662;-82
2022/11/17 02:13:00;;;;;;;2.30;2.20;;;9.80;81.70;9.80;94799.00;;;;5010209;28;20800;-83
2022/11/17 02:15:29;;;;;;;3.40;2.60;;;9.80;81.70;9.80;94806.00;;;;5019030;28;20246;-82
2022/11/17 02:17:58;;;;;;;4.80;2.50;;;9.90;81.70;9.90;94807.00;;;;5022673;28;20224;-82
2022/11/17 02:20:43;;;;;;;3.93;2.60;;;9.90;81.70;9.90;94804.00;;;;5015482;28;20626;-82
2022/11/17 02:24:08;;;;;;;3.20;2.43;;;9.90;81.80;9.90;94799.00;;;;5008445;28;20198;-82
2022/11/17 02:27:30;;;;;;;7.97;3.00;;;10.00;81.80;9.90;94799.00;;;;5016699;28;20236;-82
2022/11/17 02:30:03;;;;;;;7.50;3.30;;;10.00;82.30;9.90;94799.00;;;;5014624;28;20289;-82
2022/11/17 02:32:42;;;;;;;7.57;3.00;;;10.00;81.70;9.90;94798.00;;;;5019466;28;20260;-82
2022/11/17 02:35:22;;;;;;;9.17;3.40;;;10.00;81.70;10.00;94802.00;;;;5020484;28;20272;-82
2022/11/17 02:38:01;;;;;;;11.17;3.40;;;10.00;81.80;10.00;94794.00;;;;5011559;28;20232;-80
2022/11/17 02:40:34;;;;;;;6.30;3.30;;;10.00;81.70;10.00;94789.00;;;;5016320;28;20293;-83
2022/11/17 02:46:02;;;;;;;3.43;3.00;;;10.10;81.50;10.10;94784.00;;;;5011442;28;20947;-82
2022/11/17 02:48:35;;;;;;;5.60;3.20;;;10.10;81.50;10.00;94782.00;;;;5019312;28;20253;-82
2022/11/17 02:51:05;;;;;;;6.57;3.13;;;10.10;81.50;10.10;94779.00;;;;5008059;28;20229;-82
2022/11/17 02:53:34;;;;;;;3.23;2.90;;;10.10;81.40;10.10;94771.00;;;;5017850;28;20291;-82
2022/11/17 02:56:02;;;;;;;3.23;2.73;;;10.10;81.30;10.00;94753.00;;;;5009144;28;20226;-82
2022/11/17 02:58:31;;;;;;;2.73;2.57;;;10.10;81.40;10.00;94752.00;;;;5012216;28;20225;-83
2022/11/17 03:01:46;;;;;;;6.20;2.63;;;10.10;81.50;10.10;94752.00;;;;5015272;28;20222;-83
2022/11/17 03:04:31;;;;;;;8.23;3.23;;;10.10;81.60;10.10;94761.00;;;;5013630;28;20201;-82
2022/11/17 03:07:14;;;;;;;7.60;2.80;;;10.10;81.50;10.10;94752.00;;;;5011799;28;20224;-83
2022/11/17 03:09:55;;;;;;;3.13;2.83;;;10.20;81.70;10.10;94743.00;;;;5006535;28;20293;-83
2022/11/17 03:12:31;;;;;;;3.07;2.63;;;10.20;81.80;10.20;94745.00;;;;5019562;28;20194;-82
2022/11/17 03:15:13;;;;;;;3.20;2.90;;;10.20;81.80;10.20;94738.00;;;;5018894;28;20256;-83
2022/11/17 03:17:50;;;;;;;3.30;3.10;;;10.20;81.90;10.20;94731.00;;;;5003484;28;20296;-82
2022/11/17 03:20:24;;;;;;;9.63;3.37;;;10.30;81.90;10.30;94726.00;;;;5007180;28;20221;-82
2022/11/17 03:22:58;;;;;;;6.70;3.10;;;10.30;81.90;10.30;94718.00;;;;5011110;28;20217;-83
2022/11/17 03:25:28;;;;;;;3.43;3.20;;;10.30;81.90;10.30;94712.00;;;;5002713;28;20218;-83
2022/11/17 03:28:03;;;;;;;3.30;3.10;;;10.30;81.90;10.30;94706.00;;;;5012748;28;20264;-83
2022/11/17 03:30:34;;;;;;;8.70;3.27;;;10.30;82.00;10.40;94692.00;;;;5010407;28;20209;-82
2022/11/17 03:33:10;;;;;;;3.03;2.80;;;10.40;82.00;10.40;94698.00;;;;5012540;28;20221;-83
2022/11/17 03:35:42;;;;;;;6.47;3.20;;;10.40;81.90;10.40;94694.00;;;;5013544;28;20218;-82
2022/11/17 03:38:14;;;;;;;4.23;3.20;;;10.40;82.00;10.40;94700.00;;;;5013294;28;20292;-83
2022/11/17 03:40:47;;;;;;;5.47;3.17;;;10.40;81.80;10.40;94688.00;;;;5010100;28;20217;-82
2022/11/17 03:43:18;;;;;;;3.07;2.83;;;10.40;81.70;10.50;94680.00;;;;5018940;28;20663;-82
2022/11/17 03:45:51;;;;;;;3.07;2.87;;;10.40;81.70;10.50;94681.00;;;;5012658;28;20211;-82
2022/11/17 03:48:28;;;;;;;4.00;3.20;;;10.50;81.90;10.50;94661.00;;;;5014242;28;20213;-82
2022/11/17 03:51:05;;;;;;;3.10;2.80;;;10.50;81.90;10.50;94659.00;;;;5011388;28;20261;-82
2022/11/17 03:53:34;;;;;;;3.20;3.00;;;10.50;82.60;10.50;94658.00;;;;5013734;28;20530;-82
2022/11/17 03:56:11;;;;;;;3.57;2.90;;;10.50;81.90;10.50;94652.00;;;;5017831;28;20272;-82
2022/11/17 03:58:49;;;;;;;3.20;3.00;;;10.50;81.90;10.50;94658.00;;;;5004311;28;20202;-82
2022/11/17 04:01:20;;;;;;;3.03;2.83;;;10.50;81.70;10.50;94671.00;;;;5017668;28;20201;-83
2022/11/17 04:03:49;;;;;;;3.17;2.97;;;10.50;81.80;10.50;94674.00;;;;5018201;28;20249;-82
2022/11/17 04:06:16;;;;;;;3.40;3.10;;;10.50;81.80;10.50;94674.00;;;;5018399;28;20476;-82
2022/11/17 04:08:43;;;;;;;3.20;3.00;;;10.50;81.90;10.50;94669.00;;;;5013382;28;20264;-83
2022/11/17 04:16:42;;;;;;;3.40;3.10;;;10.60;81.80;10.50;94660.00;;;;5009073;28;20255;-83
2022/11/17 04:19:09;;;;;;;3.03;2.83;;;10.60;81.80;10.50;94643.00;;;;5015952;28;20450;-83
2022/11/17 04:21:36;;;;;;;3.40;3.03;;;10.60;81.90;10.50;94645.00;;;;5015546;28;20198;-83
2022/11/17 04:24:04;;;;;;;3.40;3.10;;;10.60;82.00;10.60;94643.00;;;;5017032;28;20640;-82
2022/11/17 04:29:16;;;;;;;3.87;3.57;;;10.60;82.10;10.60;94633.00;;;;5016370;28;20217;-82
2022/11/17 04:31:45;;;;;;;4.87;3.57;;;10.60;82.10;10.60;94634.00;;;;5016737;28;20228;-82
2022/11/17 04:34:12;;;;;;;3.43;3.10;;;10.60;82.10;10.60;94635.00;;;;5017294;28;20284;-82
2022/11/17 04:36:43;;;;;;;6.20;3.50;;;10.60;82.10;10.60;94639.00;;;;5010713;28;20240;-82
2022/11/17 04:39:12;;;;;;;8.57;3.70;;;10.60;82.10;10.60;94646.00;;;;5016158;28;20285;-82
2022/11/17 04:41:55;;;;;;;4.93;3.20;;;10.60;82.00;10.70;94636.00;;;;5015706;28;20228;-82
2022/11/17 04:44:25;;;;;;;4.07;3.73;;;10.70;82.00;10.70;94627.00;;;;4997879;28;20198;-81
2022/11/17 04:46:54;;;;;;;3.33;3.03;;;10.70;82.00;10.70;94623.00;;;;5014265;28;20304;-82
2022/11/17 04:49:24;;;;;;;3.30;3.10;;;10.70;82.00;10.70;94625.00;;;;5019656;28;20229;-82
2022/11/17 04:51:52;;;;;;;3.90;3.60;;;10.70;82.10;10.70;94629.00;;;;5007879;28;20232;-82
2022/11/17 04:54:23;;;;;;;3.50;3.20;;;10.70;82.20;10.70;94637.00;;;;5018035;28;20206;-82
2022/11/17 04:56:51;;;;;;;3.47;3.27;;;10.70;82.20;10.70;94643.00;;;;5004993;28;20202;-82
2022/11/17 04:59:19;;;;;;;3.73;3.43;;;10.70;82.20;10.70;94641.00;;;;5009685;28;20203;-82
2022/11/17 05:01:46;;;;;;;3.67;3.40;;;10.70;82.20;10.80;94642.00;;;;5015717;28;20217;-82
2022/11/17 05:04:54;;;;;;;3.20;3.00;;;10.80;82.30;10.80;94642.00;;;;5016909;28;20194;-82
2022/11/17 05:07:07;;;;;;;3.80;3.50;;;10.80;82.00;10.80;94634.00;;;;5009876;28;20313;-83
2022/11/17 05:09:34;;;;;;;3.57;3.27;;;10.80;82.70;10.80;94624.00;;;;5017262;28;20252;-82
2022/11/17 05:14:49;;;;;;;3.30;3.10;;;10.80;82.00;10.80;94619.00;;;;5018330;28;20223;-82
2022/11/17 05:17:15;;;;;;;25.57;4.23;;;10.80;82.10;10.80;94625.00;;;;5010079;28;20202;-82
2022/11/17 05:19:46;;;;;;;3.83;3.53;;;10.80;82.10;10.80;94619.00;;;;5010135;28;20668;-82
2022/11/17 05:25:02;;;;;;;3.73;3.43;;;10.80;81.90;10.80;94625.00;;;;5016260;28;20806;-80
2022/11/17 05:27:30;;;;;;;3.33;3.13;;;10.80;81.80;10.80;94626.00;;;;5014963;28;20269;-80
2022/11/17 05:29:57;;;;;;;5.33;3.10;;;10.90;81.80;10.80;94629.00;;;;5010699;28;20241;-81
2022/11/17 05:32:25;;;;;;;7.43;3.67;;;10.90;81.80;10.80;94642.00;;;;5014437;28;20229;-81
2022/11/17 05:34:53;;;;;;;4.17;3.87;;;10.90;81.70;10.90;94647.00;;;;5015763;28;20268;-81
2022/11/17 05:37:20;;;;;;;6.17;3.20;;;10.90;81.80;10.80;94650.00;;;;5006261;28;20225;-79
2022/11/17 05:39:47;;;;;;;3.67;3.47;;;10.90;81.90;10.90;94655.00;;;;5013127;28;20193;-80
2022/11/17 05:42:15;;;;;;;4.57;3.70;;;10.90;81.90;10.90;94653.00;;;;5024099;28;20581;-79
2022/11/17 05:44:42;;;;;;;3.90;3.60;;;10.90;82.00;10.90;94667.00;;;;5014302;28;20253;-79
2022/11/17 05:47:09;;;;;;;5.83;3.70;;;10.90;82.10;10.90;94682.00;;;;5013458;28;20222;-80
2022/11/17 05:49:36;;;;;;;3.37;3.17;;;10.90;82.10;10.90;94693.00;;;;5012975;28;20232;-79
2022/11/17 05:52:05;;;;;;;3.73;3.43;;;10.90;82.00;10.90;94694.00;;;;5013166;28;20284;-79
2022/11/17 05:54:32;;;;;;;4.43;3.30;;;10.90;82.10;11.00;94693.00;;;;5013062;28;20250;-80
2022/11/17 05:57:05;;;;;;;3.40;3.20;;;10.90;82.10;11.00;94682.00;;;;5002920;28;20245;-79
2022/11/17 05:59:39;;;;;;;3.90;3.60;;;10.90;82.00;11.00;94701.00;;;;5010869;28;20621;-80
2022/11/17 06:02:14;;;;;;;3.60;3.30;;;11.00;82.10;11.00;94696.00;;;;5010410;28;20602;-81
2022/11/17 06:04:41;;;;;;;3.33;3.13;;;11.00;82.10;11.00;94685.00;;;;5006680;28;20246;-80
2022/11/17 06:07:11;;;;;;;3.70;3.27;;;10.90;82.00;11.00;94684.00;;;;5011080;28;20226;-81
2022/11/17 06:09:41;;;;;;;7.90;3.13;;;11.00;81.90;11.00;94708.00;;;;5006048;28;20294;-79
2022/11/17 06:12:10;;;;;;;3.50;3.20;;;11.00;81.90;11.00;94704.00;;;;5017508;28;20210;-80
2022/11/17 06:14:38;;;;;;;3.60;3.30;;;11.00;81.80;11.00;94719.00;;;;5012863;28;20221;-80
2022/11/17 06:17:11;;;;;;;4.23;3.87;;;11.00;81.80;11.00;94714.00;;;;5016753;28;20202;-78
2022/11/17 06:19:43;;;;;;;3.97;3.67;;;11.00;81.80;11.00;94705.00;;;;5017226;28;20629;-79
2022/11/17 06:22:12;;;;;;;3.80;3.50;;;11.00;81.60;10.90;94724.00;;;;5013838;28;20293;-80
2022/11/17 06:24:42;;;;;;;4.30;3.97;;;11.00;81.70;10.90;94699.00;;;;5016520;28;20301;-79
2022/11/17 06:27:11;;;;;;;4.40;4.10;;;11.00;81.70;10.90;94704.00;;;;5014109;28;20218;-81
2022/11/17 06:29:38;;;;;;;4.33;4.03;;;11.00;81.70;10.90;94706.00;;;;5014986;28;20585;-80
2022/11/17 06:32:05;;;;;;;3.90;3.60;;;11.00;81.80;10.90;94706.00;;;;5015106;28;20252;-79
2022/11/17 06:34:33;;;;;;;4.67;4.30;;;11.00;81.80;11.00;94698.00;;;;5016239;28;20249;-80
2022/11/17 06:37:01;;;;;;;5.50;3.80;;;11.00;81.70;10.90;94695.00;;;;5013588;28;20610;-81
2022/11/17 06:39:29;;;;;;;4.37;3.97;;;11.00;81.80;11.00;94681.00;;;;5002536;28;20686;-84
2022/11/17 06:41:57;;;;;;;4.00;3.70;;;11.00;82.10;11.00;94674.00;;;;5015393;28;20237;-84
2022/11/17 06:44:24;;;;;;;4.07;3.77;;;11.00;82.20;11.00;94666.00;;;;5015385;28;20222;-85
2022/11/17 06:46:52;;;;;;;3.90;3.60;;;11.00;82.30;11.10;94676.00;;;;5015738;28;20281;-84
2022/11/17 06:49:19;;;;;;;4.72;4.32;;;11.00;82.30;11.20;94671.00;;;;5015104;28;20483;-82
2022/11/17 06:51:46;;;;;;;4.10;3.80;;;11.00;82.40;11.20;94673.00;;;;5016674;28;20624;-83
2022/11/17 06:54:14;;;;;;;4.10;3.80;;;11.00;82.40;11.20;94681.00;;;;5005162;28;20285;-83
2022/11/17 06:56:43;;;;;;;3.97;3.67;;;11.10;82.40;11.20;94675.00;;;;5015666;28;20566;-83
2022/11/17 06:59:11;;;;;;;3.50;3.20;;;11.10;82.40;11.20;94669.00;;;;5016162;28;20202;-84
2022/11/17 07:01:38;;;;;;;3.63;3.43;;;11.10;82.30;11.20;94665.00;;;;5015700;28;20191;-84
2022/11/17 07:04:06;;;;;;;3.80;3.50;;;11.10;82.30;11.30;94672.00;;;;5018157;28;20225;-85
2022/11/17 07:06:36;;;;;;;5.33;3.77;;;11.10;82.30;11.30;94684.00;;;;5017810;28;20261;-84
2022/11/17 07:09:04;;;;;;;4.20;3.80;;;11.10;82.30;11.30;94681.00;;;;5017995;28;20642;-83
2022/11/17 07:11:34;;;;;;;4.17;3.87;;;11.10;82.30;11.30;94684.00;;;;5013075;28;20253;-84
2022/11/17 07:14:03;;;;;;;3.80;3.50;;;11.10;82.20;11.30;94685.00;;;;5017237;28;20262;-83
2022/11/17 07:16:31;;;;;;;3.80;3.50;;;11.10;82.30;11.30;94693.00;;;;5011877;28;20222;-84
2022/11/17 07:18:58;;;;;;;5.30;3.60;;;11.10;82.30;11.30;94701.00;;;;5011749;28;20210;-85
2022/11/17 07:21:25;;;;;;;4.07;3.77;;;11.20;82.30;11.30;94711.00;;;;5011014;28;20607;-84
2022/11/17 07:23:53;;;;;;;5.10;4.10;;;11.20;82.40;11.30;94701.00;;;;5015013;28;20194;-85
2022/11/17 07:26:20;;;;;;;5.43;3.97;;;11.20;82.50;11.30;94707.00;;;;5013437;28;20264;-85
2022/11/17 07:28:47;;;;;;;4.40;4.10;;;11.20;82.50;11.30;94700.00;;;;5009115;28;20277;-85
2022/11/17 07:31:16;;;;;;;3.83;3.57;;;11.20;82.60;11.30;94702.00;;;;5015222;28;20198;-84
2022/11/17 07:33:43;;;;;;;4.40;4.00;;;11.20;82.50;11.30;94684.00;;;;5006621;28;20198;-84
2022/11/17 07:36:14;;;;;;;4.00;3.53;;;11.20;82.60;11.30;94694.00;;;;5008583;28;20639;-85
2022/11/17 07:38:41;;;;;;;5.17;3.50;;;11.20;82.60;11.30;94699.00;;;;5010069;28;20228;-85
2022/11/17 07:41:12;;;;;;;3.40;3.13;;;11.20;82.60;11.30;94692.00;;;;5008852;28;20205;-84
2022/11/17 07:43:40;;;;;;;3.57;3.27;;;11.20;82.80;11.30;94708.00;;;;5008130;28;20646;-85
2022/11/17 07:46:10;;;;;;;3.90;3.50;;;11.20;82.80;11.30;94717.00;;;;5014799;28;20231;-85
2022/11/17 07:48:41;;;;;;;3.60;3.30;;;11.20;82.80;11.30;94685.00;;;;5009904;28;20218;-84
2022/11/17 07:51:12;;;;;;;3.80;3.50;;;11.20;83.40;11.30;94697.00;;;;5016953;28;20206;-84
2022/11/17 07:53:40;;;;;;;9.87;4.23;;;11.20;82.60;11.20;94715.00;;;;5014370;28;20190;-84
2022/11/17 07:56:11;;;;;;;4.30;3.90;;;11.20;82.70;11.20;94721.00;;;;5014871;28;20236;-84
2022/11/17 07:58:39;;;;;;;4.33;3.13;;;11.10;82.90;11.30;94728.00;;;;5006760;28;20313;-84
2022/11/17 08:01:09;;;;;;;3.67;3.40;;;11.20;83.20;11.20;94724.00;;;;5012218;28;20198;-85
2022/11/17 08:03:36;;;;;;;4.10;3.70;;;11.20;83.20;11.20;94737.00;;;;5021792;28;20194;-85
2022/11/17 08:06:12;;;;;;;3.17;2.97;;;11.20;83.30;11.20;94741.00;;;;5017346;28;20222;-85
2022/11/17 08:08:43;;;;;;;2.90;2.70;;;11.20;83.60;11.30;94732.00;;;;5005885;28;20218;-86
2022/11/17 08:11:17;;;;;;;3.90;3.60;;;11.20;83.80;11.30;94735.00;;;;5011916;28;20204;-86
2022/11/17 08:13:53;;;;;;;3.60;3.40;;;11.20;83.80;11.30;94729.00;;;;5013859;28;20193;-85
2022/11/17 08:16:29;;;;;;;3.77;3.47;;;11.20;83.70;11.40;94730.00;;;;5026358;28;20213;-85
2022/11/17 08:19:28;;;;;;;3.60;3.30;;;11.20;83.50;11.40;94736.00;;;;5018758;28;20209;-86
2022/11/17 08:22:31;;;;;;;4.37;4.00;;;11.40;83.40;11.40;94739.00;;;;5035500;28;20210;-86
2022/11/17 08:25:10;;;;;;;3.80;3.50;;;11.20;83.30;11.40;94714.00;;;;5019322;28;20267;-85
2022/11/17 08:27:50;;;;;;;3.43;3.20;;;11.20;83.40;11.40;94740.00;;;;5016847;28;20217;-86
2022/11/17 08:30:27;;;;;;;3.57;3.27;;;12.50;84.40;11.50;94741.00;;;;5013339;28;20206;-86
2022/11/17 08:32:58;;;;;;;4.33;3.93;;;11.20;83.80;11.50;94752.00;;;;5015828;28;20635;-86
2022/11/17 08:35:40;;;;;;;4.53;3.90;;;10.20;83.20;11.50;94750.00;;;;5006913;28;20253;-85
2022/11/17 08:38:14;;;;;;;3.43;3.13;;;11.30;84.00;11.50;94758.00;;;;5017564;28;20674;-87
2022/11/17 08:40:48;;;;;;;4.23;3.93;;;11.30;83.90;11.60;94746.00;;;;5007723;28;20642;-86
2022/11/17 08:43:31;;;;;;;3.60;3.30;;;10.60;83.50;11.60;94760.00;;;;5016190;28;20651;-85
2022/11/17 08:46:11;;;;;;;3.37;3.13;;;12.40;84.70;11.60;94736.00;;;;5014911;28;20213;-84
2022/11/17 08:49:14;;;;;;;4.43;4.03;;;11.40;83.90;11.60;94724.00;;;;5013999;28;20236;-84
2022/11/17 08:52:13;;;;;;;;;;;;;;;;;;;;;
2022/11/17 08:55:10;;;;;;;4.47;4.07;;;11.40;84.00;11.60;94738.00;;;;4994097;28;20241;-85
2022/11/17 08:58:15;;;;;;;3.83;3.53;;;11.40;84.20;11.60;94740.00;;;;5002512;28;20201;-85
2022/11/17 09:00:57;;;;;;;3.70;3.40;;;11.50;84.30;11.60;94719.00;;;;5013544;28;20202;-86
2022/11/17 09:03:27;;;;;;;4.63;4.20;;;11.40;84.40;11.70;94718.00;;;;5012019;28;20209;-85
2022/11/17 09:05:56;;;;;;;4.80;4.30;;;11.50;84.50;11.70;94727.00;;;;5016085;28;20218;-85
2022/11/17 09:17:20;;;;;;;5.57;5.07;;;11.60;84.70;11.90;94734.00;;;;5222010;23;20228;-89
2022/11/17 09:19:47;;;;;;;8.20;5.57;;;11.60;84.90;12.00;94731.00;;;;5017838;28;20205;-88
2022/11/17 09:22:14;;;;;;;3.93;3.53;;;11.70;85.00;12.00;94726.00;;;;5020416;28;20308;-88
2022/11/17 09:24:41;;;;;;;3.73;3.40;;;11.70;85.10;12.10;94720.00;;;;5012348;28;20284;-88
2022/11/17 09:27:10;;;;;;;3.07;2.83;;;11.70;85.30;12.10;94718.00;;;;5019525;28;20284;-88
2022/11/17 09:29:37;;;;;;;4.17;3.80;;;12.40;85.80;12.20;94701.00;;;;5013482;28;20226;-89
2022/11/17 09:32:04;;;;;;;4.10;3.80;;;11.90;85.60;12.20;94709.00;;;;5017046;28;20220;-88
2022/11/17 09:34:31;;;;;;;3.80;3.50;;;11.90;85.70;12.30;94712.00;;;;5018181;28;20213;-88
2022/11/17 09:36:58;;;;;;;3.30;3.03;;;12.00;85.80;12.40;94694.00;;;;5025457;28;20281;-88
2022/11/17 09:39:26;;;;;;;2.57;2.37;;;12.10;86.10;12.50;94711.00;;;;5023190;28;20212;-88
2022/11/17 09:41:56;;;;;;;2.70;2.50;;;12.10;86.40;12.70;94706.00;;;;5021426;28;20201;-88
2022/11/17 09:44:38;;;;;;;2.80;2.60;;;12.20;86.70;12.80;94709.00;;;;5023151;28;20234;-88
2022/11/17 09:47:18;;;;;;;4.43;4.00;;;12.40;87.00;13.00;94704.00;;;;5021399;28;20197;-88
2022/11/17 09:49:55;;;;;;;7.10;6.33;;;12.50;87.80;13.20;94719.00;;;;5014138;28;20226;-88
2022/11/17 09:52:29;;;;;;;5.77;5.10;;;12.70;88.70;13.40;94709.00;;;;5023147;28;20193;-88
2022/11/17 09:55:00;;;;;;;3.97;3.33;;;12.90;89.00;13.60;94704.00;;;;5012810;28;20759;-88
2022/11/17 09:57:37;;;;;;;4.30;3.90;;;13.10;89.50;13.80;94704.00;;;;5023325;28;20197;-88
2022/11/17 10:00:19;;;;;;;3.90;3.50;;;13.30;90.30;14.10;94713.00;;;;5041449;28;20235;-88
2022/11/17 10:02:48;;;;;;;4.43;3.60;;;13.50;90.30;14.30;94708.00;;;;5028061;28;20206;-88
2022/11/17 10:05:26;;;;;;;3.20;2.90;;;13.70;90.20;14.50;94728.00;;;;5032719;28;20209;-87
2022/11/17 10:08:03;;;;;;;2.60;2.40;;;13.90;89.60;14.60;94725.00;;;;5039674;28;20261;-87
2022/11/17 10:10:41;;;;;;;2.07;1.87;;;14.10;88.70;14.60;94730.00;;;;5029011;28;20244;-88
2022/11/17 10:13:22;;;;;;;1.67;1.57;;;14.20;87.30;14.70;94744.00;;;;5025874;28;20473;-88
2022/11/17 10:15:55;;;;;;;1.70;1.60;;;14.40;86.70;14.70;94739.00;;;;5021406;28;20280;-88
2022/11/17 10:18:23;;;;;;;5.83;1.73;;;14.40;85.80;14.70;94742.00;;;;5024186;28;20667;-88
2022/11/17 10:20:51;;;;;;;1.73;1.63;;;14.40;85.20;14.70;94736.00;;;;5022317;28;20202;-88
2022/11/17 10:23:21;;;;;;;1.70;1.60;;;14.50;85.00;14.80;94731.00;;;;5019815;28;20256;-88
2022/11/17 10:25:56;;;;;;;1.60;1.50;;;14.50;85.50;14.80;94735.00;;;;5025108;28;20213;-89
2022/11/17 10:28:28;;;;;;;1.93;1.83;;;14.50;84.80;14.80;94740.00;;;;5017814;28;20225;-89
2022/11/17 10:31:00;;;;;;;6.20;1.90;;;14.50;84.70;14.90;94735.00;;;;5020566;28;20278;-90
2022/11/17 10:33:36;;;;;;;7.30;1.80;;;14.50;84.50;14.90;94733.00;;;;5016202;28;20403;-88
2022/11/17 10:36:13;;;;;;;2.97;1.67;;;14.60;84.50;14.90;94731.00;;;;5015342;28;20202;-89
2022/11/17 10:38:45;;;;;;;1.53;1.30;;;14.60;84.70;14.90;94737.00;;;;5013473;28;20215;-89
2022/11/17 10:41:17;;;;;;;1.40;1.30;;;14.60;84.80;14.90;94742.00;;;;5010440;28;20284;-87
2022/11/17 10:43:59;;;;;;;1.30;1.20;;;14.60;84.60;15.00;94743.00;;;;5038859;28;20221;-88
2022/11/17 10:46:28;;;;;;;1.57;1.47;;;14.50;84.10;15.00;94736.00;;;;5030159;28;20206;-87
2022/11/17 10:48:59;;;;;;;1.30;1.23;;;14.70;84.30;15.00;94724.00;;;;5028152;28;20309;-88
2022/11/17 10:51:28;;;;;;;10.67;2.17;;;14.70;84.30;15.10;94718.00;;;;5034614;28;20205;-88
2022/11/17 10:54:06;;;;;;;1.70;1.60;;;14.70;84.40;15.10;94722.00;;;;5032375;28;20296;-87
2022/11/17 10:56:41;;;;;;;5.57;1.77;;;14.70;84.40;15.10;94716.00;;;;5036329;28;20210;-87
2022/11/17 10:59:18;;;;;;;3.20;1.50;;;14.70;84.60;15.20;94715.00;;;;5027259;28;20584;-87
2022/11/17 11:01:50;;;;;;;2.23;1.60;;;14.80;84.80;15.20;94713.00;;;;5032680;28;20627;-88
2022/11/17 11:04:34;;;;;;;1.40;1.30;;;14.80;84.80;15.20;94711.00;;;;5036820;28;20301;-87
2022/11/17 11:07:13;;;;;;;1.57;1.40;;;14.80;84.40;15.30;94717.00;;;;5035293;28;20663;-87
2022/11/17 11:09:51;;;;;;;1.50;1.40;;;14.80;84.40;15.30;94718.00;;;;5031969;28;20243;-87
2022/11/17 11:12:32;;;;;;;1.63;1.13;;;14.90;84.30;15.30;94729.00;;;;5029216;28;20204;-88
2022/11/17 11:15:02;;;;;;;3.30;1.33;;;14.90;84.00;15.30;94724.00;;;;5028436;28;20560;-88
2022/11/17 11:17:31;;;;;;;1.63;1.40;;;14.90;84.10;15.30;94721.00;;;;5032619;28;20228;-88
2022/11/17 11:19:59;;;;;;;10.87;1.83;;;14.90;83.90;15.30;94725.00;;;;5036944;28;20297;-88
2022/11/17 11:22:37;;;;;;;1.40;1.30;;;14.90;83.90;15.30;94740.00;;;;5029196;28;20229;-87
2022/11/17 11:25:24;;;;;;;1.73;1.40;;;14.90;83.50;15.30;94754.00;;;;5031712;28;20205;-87
2022/11/17 11:28:21;;;;;;;1.47;1.10;;;14.90;83.50;15.20;94760.00;;;;5034774;28;20239;-87
2022/11/17 11:31:02;;;;;;;1.37;1.30;;;14.90;83.40;15.20;94769.00;;;;5027849;28;20224;-88
2022/11/17 11:33:38;;;;;;;1.17;1.07;;;14.90;83.30;15.20;94773.00;;;;5027589;28;20228;-87
2022/11/17 11:36:26;;;;;;;1.37;1.20;;;14.90;83.20;15.20;94745.00;;;;5029912;28;20244;-87
2022/11/17 11:39:03;;;;;;;2.33;1.50;;;14.90;83.40;15.20;94738.00;;;;5025647;28;20241;-87
2022/11/17 11:42:10;;;;;;;1.77;1.40;;;14.90;83.60;15.10;94762.00;;;;5013736;28;20257;-86
2022/11/17 11:45:20;;;;;;;7.83;2.87;;;14.80;83.80;15.10;94768.00;;;;5025201;28;20222;-86
2022/11/17 11:48:20;;;;;;;2.07;1.87;;;14.80;84.10;15.00;94770.00;;;;5023511;28;20615;-87
2022/11/17 11:50:57;;;;;;;9.23;4.37;;;14.80;84.20;15.00;94768.00;;;;5022997;28;20824;-86
2022/11/17 11:53:35;;;;;;;3.00;2.70;;;14.80;84.40;15.00;94757.00;;;;5032838;28;20216;-87
2022/11/17 11:56:24;;;;;;;2.07;1.80;;;14.70;84.50;15.00;94732.00;;;;5023269;28;20677;-87
2022/11/17 11:59:00;;;;;;;2.37;2.17;;;14.70;84.40;15.00;94732.00;;;;5023108;28;20628;-87